Time;durP1;ratioP1;P1;durP2;ratioP2;P2;SDS_P1;SDS_P2;PMS_P1;PMS_P2;Temp;Humidity;BMP_temperature;BMP_pressure;BME280_temperature;BME280_humidity;BME280_pressure;Samples;Min_cycle;Max_cycle;Signal;HPM_P1;HPM_P2
2022/01/22 00:00:51;;;;;;;14.73;2.83;;;6.80;99.90;;;;;;5038592;28;20048;-73
2022/01/22 00:03:17;;;;;;;19.83;3.17;;;6.70;99.90;;;;;;5035646;28;20041;-73
2022/01/22 00:05:43;;;;;;;17.27;2.72;;;6.70;99.90;;;;;;5061265;23;20151;-73
2022/01/22 00:08:09;;;;;;;15.88;2.30;;;6.70;99.90;;;;;;5045993;28;20089;-73
2022/01/22 00:10:35;;;;;;;14.13;2.20;;;6.70;99.90;;;;;;5043482;28;20041;-73
2022/01/22 00:15:28;;;;;;;14.02;3.00;;;6.70;99.90;;;;;;5052920;28;20044;-73
2022/01/22 00:17:55;;;;;;;14.30;2.10;;;6.70;99.90;;;;;;5039179;28;20528;-73
2022/01/22 00:20:24;;;;;;;12.10;2.53;;;6.70;99.90;;;;;;5044788;28;20111;-73
2022/01/22 00:22:50;;;;;;;9.73;2.78;;;6.70;99.90;;;;;;5062482;28;20045;-73
2022/01/22 00:25:17;;;;;;;11.80;1.75;;;6.70;99.90;;;;;;5052295;28;20036;-73
2022/01/22 00:27:44;;;;;;;9.75;2.30;;;6.80;99.90;;;;;;5036703;28;20036;-73
2022/01/22 00:30:13;;;;;;;10.20;1.75;;;6.70;99.90;;;;;;5043951;28;20102;-73
2022/01/22 00:32:38;;;;;;;10.13;1.98;;;6.80;99.90;;;;;;5041084;28;20021;-73
2022/01/22 00:35:05;;;;;;;9.30;2.70;;;6.80;99.90;;;;;;5062438;28;20153;-73
2022/01/22 00:37:31;;;;;;;10.73;2.40;;;6.80;99.90;;;;;;5066458;28;20063;-73
2022/01/22 00:39:57;;;;;;;12.07;2.83;;;6.80;99.90;;;;;;5056819;28;20171;-73
2022/01/22 00:42:23;;;;;;;10.00;1.98;;;6.70;99.90;;;;;;5071271;28;20131;-73
2022/01/22 00:44:51;;;;;;;9.57;2.03;;;6.80;99.90;;;;;;5071571;28;20052;-73
2022/01/22 00:47:17;;;;;;;6.97;2.10;;;6.70;99.90;;;;;;5056011;28;20049;-73
2022/01/22 00:49:44;;;;;;;8.55;2.20;;;6.80;99.90;;;;;;5042903;28;20041;-73
2022/01/22 00:52:10;;;;;;;9.75;2.30;;;6.80;99.90;;;;;;5051867;28;20041;-73
2022/01/22 00:54:35;;;;;;;11.52;2.38;;;6.80;99.90;;;;;;5050461;28;20039;-73
2022/01/22 00:57:01;;;;;;;10.98;1.80;;;6.80;99.90;;;;;;5041997;28;20033;-73
2022/01/22 00:59:26;;;;;;;11.23;1.92;;;6.90;99.90;;;;;;5047761;28;20126;-72
2022/01/22 01:01:54;;;;;;;9.02;2.40;;;7.00;99.90;;;;;;5053763;28;20040;-73
2022/01/22 01:04:19;;;;;;;6.70;2.00;;;6.90;99.90;;;;;;5041058;28;20063;-73
2022/01/22 01:06:45;;;;;;;11.82;2.72;;;6.90;99.90;;;;;;5044571;28;20102;-73
2022/01/22 01:09:11;;;;;;;9.80;2.45;;;6.80;99.90;;;;;;5044942;28;20045;-73
2022/01/22 01:11:44;;;;;;;9.88;2.10;;;6.80;99.90;;;;;;5054389;28;20048;-73
2022/01/22 01:14:15;;;;;;;7.95;1.77;;;6.80;99.90;;;;;;5052622;28;20047;-73
2022/01/22 01:16:57;;;;;;;16.48;3.00;;;6.90;99.90;;;;;;5044178;28;20060;-73
2022/01/22 01:35:43;;;;;;;8.20;2.30;;;6.80;99.90;;;;;;5041625;28;20127;-73
2022/01/22 01:38:09;;;;;;;8.60;1.92;;;6.90;99.90;;;;;;5040792;28;20161;-73
2022/01/22 01:40:39;;;;;;;10.95;1.90;;;6.90;99.90;;;;;;5042491;28;20043;-73
2022/01/22 01:45:31;;;;;;;11.23;2.13;;;6.90;99.90;;;;;;5037133;28;20052;-73
2022/01/22 01:48:02;;;;;;;12.80;2.00;;;6.90;99.90;;;;;;5052213;28;20419;-73
2022/01/22 01:50:30;;;;;;;5.88;1.83;;;6.90;99.90;;;;;;5041377;28;20072;-73
2022/01/22 01:53:47;;;;;;;8.00;1.75;;;6.90;99.90;;;;;;5045301;28;20033;-73
2022/01/22 01:56:03;;;;;;;6.53;1.98;;;7.00;99.90;;;;;;5037915;28;20090;-73
2022/01/22 01:58:30;;;;;;;9.27;1.65;;;6.90;99.90;;;;;;5044813;28;20099;-73
2022/01/22 02:00:57;;;;;;;10.98;1.73;;;7.00;99.90;;;;;;5051390;28;20032;-73
2022/01/22 02:03:23;;;;;;;5.05;1.60;;;6.90;99.90;;;;;;5040142;28;20041;-73
2022/01/22 02:05:50;;;;;;;3.08;1.00;;;6.90;99.90;;;;;;5050345;28;20406;-73
2022/01/22 02:08:17;;;;;;;6.03;1.45;;;6.90;99.90;;;;;;5050574;28;20045;-73
2022/01/22 02:10:48;;;;;;;7.22;1.60;;;6.90;99.90;;;;;;5030770;28;20028;-73
2022/01/22 02:24:15;;;;;;;8.88;1.70;;;6.90;99.90;;;;;;5053318;28;20534;-73
2022/01/22 02:26:48;;;;;;;7.55;2.00;;;6.90;99.90;;;;;;5049511;28;20052;-73
2022/01/22 02:29:14;;;;;;;11.20;1.90;;;6.90;99.90;;;;;;5045004;28;20052;-73
2022/01/22 02:31:44;;;;;;;9.68;1.83;;;6.80;99.90;;;;;;5057170;28;20064;-73
2022/01/22 02:34:44;;;;;;;11.23;2.05;;;6.80;99.90;;;;;;5041322;28;20079;-73
2022/01/22 02:37:06;;;;;;;10.20;1.33;;;6.90;99.90;;;;;;5039796;28;20131;-73
2022/01/22 02:39:43;;;;;;;8.38;1.90;;;6.80;99.90;;;;;;5038497;28;20760;-73
2022/01/22 02:42:08;;;;;;;11.05;2.20;;;6.80;99.90;;;;;;5068982;28;20060;-73
2022/01/22 02:44:43;;;;;;;8.60;2.10;;;6.80;99.90;;;;;;5037242;28;20040;-73
2022/01/22 02:47:08;;;;;;;10.35;1.85;;;6.80;99.90;;;;;;5040855;28;20056;-73
2022/01/22 02:49:35;;;;;;;7.32;1.92;;;6.80;99.90;;;;;;5049733;28;20036;-73
2022/01/22 02:52:03;;;;;;;8.63;2.00;;;6.80;99.90;;;;;;5043728;28;20675;-73
2022/01/22 02:54:29;;;;;;;7.40;1.50;;;6.90;99.90;;;;;;5034845;28;20040;-73
2022/01/22 02:56:56;;;;;;;6.55;1.33;;;6.80;99.90;;;;;;5066688;28;20190;-73
2022/01/22 02:59:23;;;;;;;7.13;1.63;;;6.80;99.90;;;;;;5045472;28;20087;-73
2022/01/22 03:01:50;;;;;;;6.82;1.55;;;6.80;99.90;;;;;;5046446;28;20693;-73
2022/01/22 03:04:16;;;;;;;8.48;1.80;;;6.70;99.90;;;;;;5037992;28;20147;-73
2022/01/22 03:06:41;;;;;;;9.50;1.75;;;6.80;99.90;;;;;;5045553;28;20060;-73
2022/01/22 03:09:09;;;;;;;10.32;1.63;;;6.70;99.90;;;;;;5038107;28;20060;-73
2022/01/22 03:11:44;;;;;;;7.85;1.50;;;6.70;99.90;;;;;;5049575;28;20044;-73
2022/01/22 03:17:10;;;;;;;7.90;1.67;;;6.80;99.90;;;;;;5046713;28;20044;-73
2022/01/22 03:22:18;;;;;;;8.40;1.35;;;6.80;99.90;;;;;;5036844;28;20135;-73
2022/01/22 03:27:31;;;;;;;7.25;1.52;;;6.80;99.90;;;;;;5046019;28;20055;-73
2022/01/22 03:29:57;;;;;;;6.05;1.45;;;6.70;99.90;;;;;;5041083;28;20045;-73
2022/01/22 03:32:27;;;;;;;4.60;1.60;;;6.70;99.90;;;;;;5040844;28;20033;-73
2022/01/22 03:34:59;;;;;;;5.57;1.45;;;6.70;99.90;;;;;;5049285;28;20066;-73
2022/01/22 03:37:25;;;;;;;5.10;1.08;;;6.70;99.90;;;;;;5052604;28;20048;-73
2022/01/22 03:39:52;;;;;;;6.68;1.35;;;6.70;99.90;;;;;;5068706;28;20535;-73
2022/01/22 03:42:17;;;;;;;5.72;1.45;;;6.70;99.90;;;;;;5068533;28;20116;-73
2022/01/22 03:44:43;;;;;;;9.73;1.65;;;6.70;99.90;;;;;;5050461;28;20462;-73
2022/01/22 03:47:09;;;;;;;9.85;2.08;;;6.70;99.90;;;;;;5040160;28;20048;-73
2022/01/22 03:49:34;;;;;;;7.90;2.15;;;6.70;99.90;;;;;;5022734;28;20040;-73
2022/01/22 03:52:00;;;;;;;10.68;1.73;;;6.70;99.90;;;;;;5036717;28;20068;-73
2022/01/22 03:54:25;;;;;;;5.70;1.75;;;6.70;99.90;;;;;;5038048;28;20084;-73
2022/01/22 03:56:52;;;;;;;8.10;1.42;;;6.70;99.90;;;;;;5047015;28;20504;-73
2022/01/22 03:59:18;;;;;;;5.68;1.40;;;6.80;99.90;;;;;;5042597;28;20089;-73
2022/01/22 04:02:11;;;;;;;9.45;1.60;;;6.70;99.90;;;;;;5068265;28;20044;-73
2022/01/22 04:04:37;;;;;;;5.97;1.83;;;6.70;99.90;;;;;;5050302;28;20227;-73
2022/01/22 04:09:49;;;;;;;5.20;1.55;;;6.70;99.90;;;;;;5034383;28;20061;-73
2022/01/22 04:12:20;;;;;;;7.05;1.80;;;6.70;99.90;;;;;;5047024;28;20037;-73
2022/01/22 04:14:52;;;;;;;6.72;1.63;;;6.70;99.90;;;;;;5019393;28;20041;-73
2022/01/22 04:17:35;;;;;;;5.07;1.50;;;6.70;99.90;;;;;;5047224;28;20047;-73
2022/01/22 04:25:34;;;;;;;6.35;1.70;;;6.70;99.90;;;;;;5049764;28;20037;-74
2022/01/22 04:28:00;;;;;;;9.38;1.98;;;6.60;99.90;;;;;;5035989;28;20114;-73
2022/01/22 04:30:28;;;;;;;8.50;1.60;;;6.60;99.90;;;;;;5041648;28;20029;-73
2022/01/22 04:32:54;;;;;;;3.67;1.50;;;6.60;99.90;;;;;;5052601;28;20048;-73
2022/01/22 04:35:22;;;;;;;6.50;1.63;;;6.60;99.90;;;;;;5045327;28;20504;-74
2022/01/22 04:37:48;;;;;;;6.88;1.25;;;6.60;99.90;;;;;;5044122;28;20033;-73
2022/01/22 04:40:14;;;;;;;4.80;1.27;;;6.60;99.90;;;;;;5041874;28;20049;-73
2022/01/22 04:42:42;;;;;;;4.88;1.33;;;6.60;99.90;;;;;;5064365;28;20043;-73
2022/01/22 04:45:25;;;;;;;7.10;1.50;;;6.60;99.90;;;;;;5068996;28;20036;-73
2022/01/22 04:48:08;;;;;;;8.07;1.25;;;6.60;99.90;;;;;;5050426;28;20401;-73
2022/01/22 04:55:44;;;;;;;7.15;1.60;;;6.60;99.90;;;;;;5062779;28;20516;-73
2022/01/22 04:58:10;;;;;;;5.18;1.08;;;6.60;99.90;;;;;;5048649;28;20043;-73
2022/01/22 05:00:38;;;;;;;4.65;1.08;;;6.60;99.90;;;;;;5040038;28;20044;-73
2022/01/22 05:03:05;;;;;;;6.95;1.17;;;6.60;99.90;;;;;;5049833;28;20045;-73
2022/01/22 05:05:31;;;;;;;5.68;1.20;;;6.60;99.90;;;;;;5051852;28;20076;-73
2022/01/22 05:07:57;;;;;;;3.75;1.00;;;6.50;99.90;;;;;;5037226;28;20052;-73
2022/01/22 05:10:23;;;;;;;4.38;0.90;;;6.60;99.90;;;;;;5045682;28;20037;-73
2022/01/22 05:12:49;;;;;;;3.92;0.80;;;6.60;99.90;;;;;;5065658;28;20428;-73
2022/01/22 05:15:17;;;;;;;3.88;1.02;;;6.60;99.90;;;;;;5038163;28;20036;-74
2022/01/22 05:17:44;;;;;;;3.83;0.75;;;6.50;99.90;;;;;;5049162;28;20120;-73
2022/01/22 05:25:25;;;;;;;3.47;0.98;;;6.50;99.90;;;;;;5040816;28;20135;-73
2022/01/22 05:28:05;;;;;;;3.17;0.90;;;6.60;99.90;;;;;;5040453;28;20041;-73
2022/01/22 05:38:48;;;;;;;8.07;1.30;;;6.60;99.90;;;;;;5042400;28;20056;-73
2022/01/22 05:41:14;;;;;;;7.80;1.58;;;6.60;99.90;;;;;;5046276;28;20037;-73
2022/01/22 05:43:40;;;;;;;7.05;1.33;;;6.60;99.90;;;;;;5043189;28;20036;-73
2022/01/22 05:46:05;;;;;;;7.80;1.42;;;6.60;99.90;;;;;;5046659;28;20048;-73
2022/01/22 05:48:31;;;;;;;10.15;1.38;;;6.50;99.90;;;;;;5043883;28;20036;-73
2022/01/22 05:51:01;;;;;;;9.10;1.52;;;6.60;99.90;;;;;;5034741;28;20447;-73
2022/01/22 05:53:41;;;;;;;6.20;1.30;;;6.50;99.90;;;;;;5042654;28;20476;-73
2022/01/22 06:01:19;;;;;;;7.47;1.70;;;6.60;99.90;;;;;;5040359;28;20379;-74
2022/01/22 06:03:45;;;;;;;9.23;2.00;;;6.60;99.90;;;;;;5024478;28;20113;-73
2022/01/22 06:06:11;;;;;;;7.05;1.67;;;6.60;99.90;;;;;;5022480;28;20471;-73
2022/01/22 06:08:52;;;;;;;9.43;1.38;;;6.60;99.90;;;;;;5043752;28;20123;-73
2022/01/22 06:11:26;;;;;;;7.07;1.70;;;6.60;99.90;;;;;;5045251;28;20194;-73
2022/01/22 06:13:52;;;;;;;8.02;1.67;;;6.50;99.90;;;;;;5052079;28;20040;-73
2022/01/22 06:16:20;;;;;;;9.57;1.70;;;6.50;99.90;;;;;;5041085;28;20044;-73
2022/01/22 06:18:47;;;;;;;8.23;1.50;;;6.50;99.90;;;;;;5035478;28;20053;-74
2022/01/22 06:21:12;;;;;;;18.77;3.55;;;6.60;99.90;;;;;;5065856;28;20037;-73
2022/01/22 06:23:39;;;;;;;10.43;2.05;;;6.50;99.90;;;;;;5043479;28;20090;-73
2022/01/22 06:26:06;;;;;;;12.40;2.80;;;6.60;99.90;;;;;;5035960;28;20098;-73
2022/01/22 06:28:32;;;;;;;6.03;1.92;;;6.60;99.90;;;;;;5051901;28;20091;-73
2022/01/22 06:30:59;;;;;;;11.07;2.40;;;6.60;99.90;;;;;;5026859;28;20134;-73
2022/01/22 06:33:25;;;;;;;5.72;2.10;;;6.60;99.90;;;;;;5033687;28;20072;-73
2022/01/22 06:35:51;;;;;;;13.10;2.65;;;6.60;99.90;;;;;;5065908;28;20037;-73
2022/01/22 06:38:18;;;;;;;6.90;2.50;;;6.60;99.90;;;;;;5052099;28;20115;-73
2022/01/22 06:43:28;;;;;;;9.15;2.47;;;6.60;99.90;;;;;;5041175;28;20179;-73
2022/01/22 06:45:54;;;;;;;7.55;2.70;;;6.60;99.90;;;;;;5034567;28;20123;-73
2022/01/22 06:48:20;;;;;;;5.85;2.20;;;6.60;99.90;;;;;;5053086;28;20516;-73
2022/01/22 06:50:46;;;;;;;8.23;2.22;;;6.60;99.90;;;;;;5052207;28;20044;-73
2022/01/22 06:53:11;;;;;;;8.70;2.10;;;6.60;99.90;;;;;;5043142;28;20079;-73
2022/01/22 06:55:42;;;;;;;6.90;1.80;;;6.60;99.90;;;;;;5048561;28;20497;-73
2022/01/22 06:58:08;;;;;;;6.68;1.83;;;6.60;99.90;;;;;;5038842;28;20059;-73
2022/01/22 07:00:33;;;;;;;5.78;1.90;;;6.60;99.90;;;;;;5033766;28;20029;-73
2022/01/22 07:02:59;;;;;;;6.70;2.05;;;6.50;99.90;;;;;;5034866;28;20040;-73
2022/01/22 07:05:25;;;;;;;4.57;1.38;;;6.50;99.90;;;;;;5048392;28;20656;-73
2022/01/22 07:07:50;;;;;;;4.82;1.40;;;6.60;99.90;;;;;;5033680;28;20101;-73
2022/01/22 07:10:16;;;;;;;4.22;1.70;;;6.60;99.90;;;;;;5049807;28;20119;-73
2022/01/22 07:12:41;;;;;;;4.82;1.40;;;6.60;99.90;;;;;;5034785;28;20047;-73
2022/01/22 07:15:08;;;;;;;5.63;1.90;;;6.60;99.90;;;;;;5049375;28;20040;-74
2022/01/22 07:17:36;;;;;;;4.88;1.80;;;6.60;99.90;;;;;;5051757;28;20064;-73
2022/01/22 07:20:05;;;;;;;3.40;2.10;;;6.60;99.90;;;;;;5053269;28;20047;-73
2022/01/22 07:22:48;;;;;;;5.38;1.95;;;6.60;99.90;;;;;;5051217;28;20040;-74
2022/01/22 07:25:13;;;;;;;4.72;1.77;;;6.60;99.90;;;;;;5040606;28;20052;-73
2022/01/22 07:27:39;;;;;;;5.00;1.70;;;6.60;99.90;;;;;;5035842;28;20809;-73
2022/01/22 07:30:05;;;;;;;4.57;1.50;;;6.60;99.90;;;;;;5051367;28;20056;-73
2022/01/22 07:32:35;;;;;;;5.60;1.55;;;6.60;99.90;;;;;;5052609;28;20068;-73
2022/01/22 07:35:03;;;;;;;6.28;1.63;;;6.60;99.90;;;;;;5037919;28;20511;-73
2022/01/22 07:37:29;;;;;;;5.05;1.83;;;6.60;99.90;;;;;;5055193;28;20099;-73
2022/01/22 07:39:54;;;;;;;5.32;1.48;;;6.50;99.90;;;;;;5046802;28;20036;-73
2022/01/22 07:42:20;;;;;;;6.18;1.98;;;6.50;99.90;;;;;;5042370;28;20029;-73
2022/01/22 07:44:45;;;;;;;4.32;1.80;;;6.50;99.90;;;;;;5043647;28;20079;-73
2022/01/22 07:47:11;;;;;;;5.50;2.17;;;6.60;99.90;;;;;;5032109;28;20060;-73
2022/01/22 07:49:37;;;;;;;3.88;1.88;;;6.50;99.90;;;;;;5033628;28;20068;-73
2022/01/22 07:52:03;;;;;;;5.75;2.05;;;6.60;99.90;;;;;;5043263;28;20094;-73
2022/01/22 07:54:29;;;;;;;8.52;2.25;;;6.50;99.90;;;;;;5052401;28;20048;-73
2022/01/22 07:56:54;;;;;;;4.55;2.10;;;6.50;99.90;;;;;;5035586;28;20063;-73
2022/01/22 07:59:20;;;;;;;4.80;1.80;;;6.40;99.90;;;;;;5041067;28;20044;-73
2022/01/22 08:01:45;;;;;;;3.35;1.95;;;6.40;99.90;;;;;;5027067;28;20044;-73
2022/01/22 08:04:11;;;;;;;7.53;3.17;;;6.50;99.90;;;;;;5033303;28;20628;-73
2022/01/22 08:06:36;;;;;;;5.72;2.22;;;6.50;99.90;;;;;;5032544;28;20559;-73
2022/01/22 08:09:02;;;;;;;11.77;2.70;;;6.50;99.90;;;;;;5016218;28;20694;-73
2022/01/22 08:11:31;;;;;;;5.80;2.35;;;6.50;99.90;;;;;;5039965;28;20044;-73
2022/01/22 08:13:56;;;;;;;6.13;2.20;;;6.50;99.90;;;;;;5041201;28;20052;-73
2022/01/22 08:16:22;;;;;;;3.65;1.65;;;6.40;99.90;;;;;;5048231;28;20052;-73
2022/01/22 08:18:47;;;;;;;5.60;1.67;;;6.50;99.90;;;;;;5038291;28;20043;-73
2022/01/22 08:21:13;;;;;;;4.90;1.67;;;6.50;99.90;;;;;;5038777;28;20348;-73
2022/01/22 08:23:38;;;;;;;2.65;1.35;;;6.40;99.90;;;;;;5036215;28;20052;-73
2022/01/22 08:26:08;;;;;;;3.88;1.63;;;6.40;99.90;;;;;;5020441;28;20053;-73
2022/01/22 08:31:24;;;;;;;3.20;1.30;;;6.40;99.90;;;;;;5043356;28;20045;-73
2022/01/22 08:36:35;;;;;;;3.78;1.25;;;6.40;99.90;;;;;;5054912;28;20131;-73
2022/01/22 08:39:00;;;;;;;3.88;1.20;;;6.40;99.90;;;;;;5050821;28;20116;-73
2022/01/22 08:41:26;;;;;;;4.80;1.63;;;6.40;99.90;;;;;;5052920;28;20037;-73
2022/01/22 08:43:53;;;;;;;3.90;1.45;;;6.40;99.90;;;;;;5039850;28;20089;-73
2022/01/22 08:46:19;;;;;;;4.57;1.33;;;6.40;99.90;;;;;;5025511;28;20422;-73
2022/01/22 08:48:45;;;;;;;4.15;1.42;;;6.50;99.90;;;;;;5048280;28;20041;-73
2022/01/22 08:51:12;;;;;;;4.82;1.33;;;6.40;99.90;;;;;;5033495;28;20051;-73
2022/01/22 08:53:38;;;;;;;7.28;1.38;;;6.40;99.90;;;;;;5051824;28;20478;-73
2022/01/22 08:56:05;;;;;;;6.43;1.30;;;6.40;99.90;;;;;;5036944;28;20077;-73
2022/01/22 08:58:31;;;;;;;7.03;1.67;;;6.40;99.90;;;;;;5039419;28;20449;-73
2022/01/22 09:00:57;;;;;;;4.18;1.30;;;6.40;99.90;;;;;;5032698;28;20036;-73
2022/01/22 09:03:23;;;;;;;3.92;1.13;;;6.40;99.90;;;;;;5053963;28;20136;-73
2022/01/22 09:05:49;;;;;;;8.15;1.70;;;6.40;99.90;;;;;;5037534;28;20455;-73
2022/01/22 09:08:15;;;;;;;6.65;1.00;;;6.40;99.90;;;;;;5036509;28;20049;-73
2022/01/22 09:10:44;;;;;;;7.55;1.60;;;6.40;99.90;;;;;;5036028;28;20040;-73
2022/01/22 09:13:11;;;;;;;4.57;1.17;;;6.40;99.90;;;;;;5069756;28;20571;-73
2022/01/22 09:15:38;;;;;;;3.55;1.20;;;6.50;99.90;;;;;;5044715;28;20028;-73
2022/01/22 09:18:05;;;;;;;7.45;1.40;;;6.50;99.90;;;;;;5042906;28;20024;-73
2022/01/22 09:20:44;;;;;;;5.90;1.73;;;6.50;99.90;;;;;;5037126;28;20121;-73
2022/01/22 09:23:11;;;;;;;8.35;1.65;;;6.50;99.90;;;;;;5070945;28;20049;-73
2022/01/22 09:25:37;;;;;;;7.78;1.98;;;6.50;99.90;;;;;;5023522;28;20090;-73
2022/01/22 09:28:04;;;;;;;4.38;1.45;;;6.50;99.90;;;;;;5041872;28;20045;-73
2022/01/22 09:30:30;;;;;;;5.57;1.48;;;6.50;99.90;;;;;;5035398;28;20040;-73
2022/01/22 09:32:56;;;;;;;7.03;1.60;;;6.50;99.90;;;;;;5038997;28;20060;-73
2022/01/22 09:35:21;;;;;;;10.30;1.88;;;6.60;99.90;;;;;;5035382;28;20036;-73
2022/01/22 09:37:47;;;;;;;6.50;1.40;;;6.60;99.90;;;;;;5067944;28;20060;-73
2022/01/22 09:40:13;;;;;;;7.75;1.55;;;6.50;99.90;;;;;;5043940;28;20041;-73
2022/01/22 09:42:40;;;;;;;9.48;1.58;;;6.60;99.90;;;;;;5045304;28;20069;-73
2022/01/22 09:45:07;;;;;;;8.55;1.98;;;6.60;99.90;;;;;;5037570;28;20531;-73
2022/01/22 09:47:33;;;;;;;5.60;1.40;;;6.60;99.90;;;;;;5069713;28;20396;-73
2022/01/22 09:49:59;;;;;;;8.13;2.33;;;6.60;99.90;;;;;;5043441;28;20067;-73
2022/01/22 09:52:25;;;;;;;4.25;1.42;;;6.70;99.90;;;;;;5030663;28;20674;-73
2022/01/22 09:54:51;;;;;;;8.68;2.38;;;6.70;99.90;;;;;;5065452;28;20036;-73
2022/01/22 09:57:17;;;;;;;6.28;1.90;;;6.70;99.90;;;;;;5036377;28;20486;-73
2022/01/22 09:59:43;;;;;;;8.10;1.83;;;6.70;99.90;;;;;;5036222;28;20063;-73
2022/01/22 10:02:18;;;;;;;7.97;2.40;;;6.80;99.90;;;;;;5043185;28;20074;-73
2022/01/22 10:04:48;;;;;;;9.07;2.33;;;6.70;99.90;;;;;;5039464;28;20619;-73
2022/01/22 10:07:23;;;;;;;4.90;2.10;;;6.80;99.90;;;;;;5045699;28;20049;-73
2022/01/22 10:10:03;;;;;;;5.95;2.10;;;6.80;99.90;;;;;;5031407;28;20127;-73
2022/01/22 10:12:31;;;;;;;6.93;2.00;;;6.70;99.90;;;;;;5044706;28;20041;-73
2022/01/22 10:15:07;;;;;;;6.57;1.77;;;6.80;99.90;;;;;;5040350;28;20056;-73
2022/01/22 10:17:38;;;;;;;8.43;2.50;;;6.90;99.90;;;;;;5045863;28;20045;-73
2022/01/22 10:20:24;;;;;;;7.88;2.50;;;6.90;99.90;;;;;;5041510;28;20189;-72
2022/01/22 10:22:51;;;;;;;5.47;2.33;;;6.90;99.90;;;;;;5043844;28;20044;-73
2022/01/22 10:25:21;;;;;;;7.50;3.20;;;7.00;99.90;;;;;;5048155;28;20470;-73
2022/01/22 10:28:02;;;;;;;8.43;2.80;;;7.10;99.90;;;;;;5033142;28;20040;-73
2022/01/22 10:30:36;;;;;;;11.63;2.72;;;7.10;99.90;;;;;;5047489;28;20040;-73
2022/01/22 10:33:31;;;;;;;7.80;2.47;;;7.20;99.90;;;;;;5043922;28;20048;-73
2022/01/22 10:36:12;;;;;;;7.60;2.45;;;7.20;99.90;;;;;;5038414;28;20052;-73
2022/01/22 10:38:52;;;;;;;8.25;2.53;;;7.30;99.90;;;;;;5044830;28;20048;-73
2022/01/22 10:41:39;;;;;;;11.68;2.50;;;7.30;99.90;;;;;;5025292;28;20093;-73
2022/01/22 10:44:08;;;;;;;11.20;2.85;;;7.30;99.90;;;;;;5049168;28;20078;-73
2022/01/22 10:46:47;;;;;;;11.18;3.30;;;7.30;99.90;;;;;;5040760;28;20037;-73
2022/01/22 10:49:26;;;;;;;9.13;2.53;;;7.30;99.90;;;;;;5043194;28;20036;-73
2022/01/22 10:51:59;;;;;;;9.07;3.17;;;7.30;99.90;;;;;;5045373;28;20418;-72
2022/01/22 10:54:30;;;;;;;9.38;2.53;;;7.30;99.90;;;;;;5044358;28;20051;-73
2022/01/22 10:57:20;;;;;;;9.82;3.10;;;7.40;99.90;;;;;;5042849;28;20052;-73
2022/01/22 10:59:50;;;;;;;8.15;3.90;;;7.30;99.90;;;;;;5033517;28;20048;-73
2022/01/22 11:02:17;;;;;;;12.35;4.55;;;7.30;99.90;;;;;;5040067;28;20086;-74
2022/01/22 11:04:45;;;;;;;8.45;2.83;;;7.30;99.90;;;;;;5050999;28;20069;-72
2022/01/22 11:07:18;;;;;;;7.35;3.25;;;7.30;99.90;;;;;;5037179;28;20061;-72
2022/01/22 11:09:44;;;;;;;8.20;2.90;;;7.30;99.90;;;;;;5021424;28;20709;-72
2022/01/22 11:12:10;;;;;;;10.82;3.05;;;7.30;99.90;;;;;;5045040;28;20040;-72
2022/01/22 11:14:37;;;;;;;10.93;2.75;;;7.30;99.90;;;;;;5044725;28;20127;-72
2022/01/22 11:17:05;;;;;;;11.73;3.28;;;7.30;99.90;;;;;;5019547;28;20048;-72
2022/01/22 11:19:34;;;;;;;13.00;3.85;;;7.20;99.90;;;;;;5045699;28;20436;-72
2022/01/22 11:22:08;;;;;;;8.88;3.60;;;7.20;99.90;;;;;;5037301;28;20047;-72
2022/01/22 11:24:37;;;;;;;10.07;3.00;;;7.20;99.90;;;;;;5021352;28;20067;-72
2022/01/22 11:27:05;;;;;;;10.55;3.65;;;7.20;99.90;;;;;;5050560;28;20591;-72
2022/01/22 11:29:40;;;;;;;16.88;5.00;;;7.20;99.90;;;;;;5032179;28;20037;-71
2022/01/22 11:32:10;;;;;;;10.55;4.13;;;7.20;99.90;;;;;;5070721;28;20044;-71
2022/01/22 11:34:37;;;;;;;11.75;3.45;;;7.20;99.90;;;;;;5035762;28;20051;-71
2022/01/22 11:37:21;;;;;;;10.02;3.95;;;7.20;99.90;;;;;;5048474;28;20889;-72
2022/01/22 11:39:47;;;;;;;14.02;3.28;;;7.20;99.90;;;;;;5051096;28;20055;-72
2022/01/22 11:42:14;;;;;;;13.20;3.10;;;7.30;99.90;;;;;;5022470;28;20036;-72
2022/01/22 11:44:49;;;;;;;8.95;3.25;;;7.20;99.90;;;;;;5038202;28;20076;-71
2022/01/22 11:47:20;;;;;;;14.40;3.00;;;7.30;99.90;;;;;;5051113;28;20044;-72
2022/01/22 11:50:07;;;;;;;9.18;3.22;;;7.20;99.90;;;;;;5049014;28;20062;-71
2022/01/22 11:52:37;;;;;;;11.57;2.90;;;7.20;99.90;;;;;;5065618;28;20037;-71
2022/01/22 11:55:16;;;;;;;6.93;3.03;;;7.30;99.90;;;;;;5065838;28;20036;-71
2022/01/22 11:57:43;;;;;;;11.95;3.03;;;7.30;99.90;;;;;;5060529;28;20049;-71
2022/01/22 12:00:26;;;;;;;12.85;3.97;;;7.30;99.90;;;;;;5042030;28;20033;-71
2022/01/22 12:03:18;;;;;;;7.78;2.78;;;7.30;99.90;;;;;;5076129;28;20048;-71
2022/01/22 12:05:53;;;;;;;9.05;2.85;;;7.30;99.90;;;;;;5045769;28;20402;-71
2022/01/22 12:08:19;;;;;;;12.57;3.22;;;7.30;99.90;;;;;;5033593;28;20048;-71
2022/01/22 12:14:27;;;;;;;7.82;2.80;;;7.30;99.90;;;;;;5041191;28;20041;-71
2022/01/22 12:16:40;;;;;;;8.63;2.85;;;7.40;99.90;;;;;;5042930;28;20136;-71
2022/01/22 12:22:48;;;;;;;7.90;2.63;;;7.40;99.90;;;;;;5080471;28;20040;-70
2022/01/22 12:25:14;;;;;;;10.57;3.03;;;7.40;99.90;;;;;;4984644;28;20046;-70
2022/01/22 12:27:46;;;;;;;11.32;3.35;;;7.40;99.90;;;;;;5065251;28;20110;-70
2022/01/22 12:30:13;;;;;;;11.27;3.70;;;7.40;99.90;;;;;;5044421;28;20032;-70
2022/01/22 12:32:46;;;;;;;9.93;3.45;;;7.40;99.90;;;;;;5074617;28;20079;-70
2022/01/22 12:35:34;;;;;;;9.50;3.60;;;7.40;99.90;;;;;;5072331;28;20093;-70
2022/01/22 12:38:19;;;;;;;13.18;4.80;;;7.40;99.90;;;;;;5083985;28;20044;-70
2022/01/22 12:40:45;;;;;;;14.43;4.60;;;7.40;99.90;;;;;;5064135;28;20071;-70
2022/01/22 12:43:19;;;;;;;10.02;3.65;;;7.40;99.90;;;;;;5074531;28;20603;-70
2022/01/22 12:45:53;;;;;;;10.70;4.30;;;7.50;99.90;;;;;;5070056;28;20040;-70
2022/01/22 12:48:20;;;;;;;12.43;4.00;;;7.40;99.90;;;;;;5073464;28;20051;-70
2022/01/22 12:50:45;;;;;;;14.38;4.60;;;7.40;99.90;;;;;;5069160;28;20046;-70
2022/01/22 12:53:13;;;;;;;11.98;4.90;;;7.40;99.90;;;;;;5074636;28;20043;-70
2022/01/22 12:56:24;;;;;;;12.18;5.03;;;7.50;99.90;;;;;;5070397;28;20072;-70
2022/01/22 12:58:44;;;;;;;10.88;3.63;;;7.40;99.90;;;;;;5060650;28;20052;-70
2022/01/22 13:01:11;;;;;;;11.75;4.55;;;7.40;99.90;;;;;;5087845;28;20641;-70
2022/01/22 13:03:40;;;;;;;14.13;5.82;;;7.40;99.90;;;;;;5063741;28;20389;-70
2022/01/22 13:06:06;;;;;;;14.77;5.43;;;7.40;99.90;;;;;;5074318;28;20097;-70
2022/01/22 13:08:34;;;;;;;13.20;3.97;;;7.40;99.90;;;;;;5074789;28;20040;-70
2022/01/22 13:11:01;;;;;;;13.10;3.95;;;7.30;99.90;;;;;;5071958;28;20596;-70
2022/01/22 13:13:28;;;;;;;11.40;3.60;;;7.30;99.90;;;;;;5065560;28;20032;-70
2022/01/22 13:16:20;;;;;;;11.30;3.63;;;7.40;99.90;;;;;;5070493;28;20046;-70
2022/01/22 13:18:50;;;;;;;;;;;7.40;99.90;;;;;;5067387;28;20601;-70
2022/01/22 13:21:18;;;;;;;10.55;3.42;;;7.40;99.90;;;;;;5071644;28;20368;-70
2022/01/22 13:23:48;;;;;;;11.57;4.43;;;7.30;99.90;;;;;;5046693;28;20040;-70
2022/01/22 13:26:15;;;;;;;13.60;4.10;;;7.40;99.90;;;;;;5071807;28;20444;-70
2022/01/22 13:28:42;;;;;;;9.85;3.35;;;7.40;99.90;;;;;;5084749;28;20072;-70
2022/01/22 13:31:14;;;;;;;9.93;3.60;;;7.40;99.90;;;;;;5072494;28;20040;-70
2022/01/22 13:33:51;;;;;;;14.57;4.38;;;7.40;99.90;;;;;;5065320;28;20050;-70
2022/01/22 13:36:25;;;;;;;16.42;4.65;;;7.40;99.90;;;;;;5068418;28;20040;-70
2022/01/22 13:49:39;;;;;;;10.57;3.00;;;7.40;99.90;;;;;;5071407;28;20048;-70
2022/01/22 13:52:13;;;;;;;8.82;2.45;;;7.40;99.90;;;;;;5070589;28;20106;-70
2022/01/22 13:54:51;;;;;;;7.05;1.98;;;7.50;99.90;;;;;;5070267;28;20044;-70
2022/01/22 13:57:25;;;;;;;9.68;2.20;;;7.40;99.90;;;;;;5067113;28;20048;-69
2022/01/22 13:59:53;;;;;;;11.60;3.13;;;7.40;99.90;;;;;;5063817;28;20044;-69
2022/01/22 14:04:48;;;;;;;9.50;1.67;;;7.30;99.90;;;;;;5061152;28;20048;-70
2022/01/22 14:07:27;;;;;;;11.88;1.88;;;7.30;99.90;;;;;;5061579;28;20040;-69
2022/01/22 14:09:57;;;;;;;9.60;2.28;;;7.30;99.90;;;;;;5044011;28;20119;-70
2022/01/22 14:12:50;;;;;;;4.05;1.52;;;7.30;99.90;;;;;;5062644;28;20140;-70
2022/01/22 14:15:40;;;;;;;11.52;2.35;;;7.20;99.90;;;;;;5086900;28;20052;-70
2022/01/22 14:20:40;;;;;;;8.85;2.38;;;7.20;99.90;;;;;;5071290;28;20056;-70
2022/01/22 14:23:12;;;;;;;7.75;2.60;;;7.20;99.90;;;;;;5053442;28;20028;-70
2022/01/22 14:25:55;;;;;;;11.15;2.17;;;7.10;99.90;;;;;;5063535;28;20076;-70
2022/01/22 14:28:25;;;;;;;7.50;1.95;;;7.20;99.90;;;;;;5054103;28;20123;-70
2022/01/22 14:30:51;;;;;;;8.82;2.45;;;7.10;99.90;;;;;;5055328;28;20047;-70
2022/01/22 14:33:20;;;;;;;8.80;2.15;;;7.10;99.90;;;;;;5049744;28;20032;-70
2022/01/22 14:35:58;;;;;;;13.05;2.03;;;7.10;99.90;;;;;;5064015;28;20056;-70
2022/01/22 14:38:35;;;;;;;11.75;2.20;;;7.10;99.90;;;;;;5089215;28;20089;-70
2022/01/22 14:47:01;;;;;;;7.50;2.08;;;7.10;99.90;;;;;;5018646;28;20098;-70
2022/01/22 14:49:28;;;;;;;6.80;1.80;;;7.00;99.90;;;;;;5072390;28;20039;-70
2022/01/22 14:51:55;;;;;;;7.70;1.48;;;7.00;99.90;;;;;;5050795;28;20044;-70
2022/01/22 14:54:23;;;;;;;8.50;1.83;;;7.00;99.90;;;;;;5052945;28;20067;-70
2022/01/22 14:56:49;;;;;;;5.57;1.52;;;6.90;99.90;;;;;;5057046;28;20090;-70